createdAt,value
2023-03-30T00:01:12.143Z,-1.94
2023-03-30T00:03:44.192Z,-1.97
2023-03-30T00:06:14.731Z,-1.98
2023-03-30T00:08:42.991Z,-2.00
2023-03-30T00:11:17.179Z,-2.00
2023-03-30T00:13:47.024Z,-2.01
2023-03-30T00:16:14.971Z,-2.01
2023-03-30T00:18:45.042Z,-2.01
2023-03-30T00:21:20.780Z,-2.03
2023-03-30T00:23:52.383Z,-2.03
2023-03-30T00:26:20.613Z,-2.03
2023-03-30T00:28:48.495Z,-2.03
2023-03-30T00:31:17.185Z,-2.04
2023-03-30T00:33:47.541Z,-2.04
2023-03-30T00:36:17.817Z,-2.05
2023-03-30T00:38:49.361Z,-2.06
2023-03-30T00:41:17.931Z,-2.06
2023-03-30T00:44:07.588Z,-2.07
2023-03-30T00:46:36.505Z,-2.08
2023-03-30T00:49:06.657Z,-2.08
2023-03-30T00:51:37.366Z,-2.10
2023-03-30T00:54:08.629Z,-2.10
2023-03-30T00:56:38.021Z,-2.11
2023-03-30T00:59:05.932Z,-2.13
2023-03-30T01:01:39.534Z,-2.15
2023-03-30T01:04:10.105Z,-2.16
2023-03-30T01:06:40.436Z,-2.17
2023-03-30T01:09:09.013Z,-2.18
2023-03-30T01:11:40.462Z,-2.19
2023-03-30T01:14:10.122Z,-2.20
2023-03-30T01:16:48.736Z,-2.21
2023-03-30T01:19:44.654Z,-2.23
2023-03-30T01:22:18.594Z,-2.25
2023-03-30T01:24:53.676Z,-2.28
2023-03-30T01:27:30.673Z,-2.30
2023-03-30T01:30:30.579Z,-2.32
2023-03-30T01:33:23.485Z,-2.34
2023-03-30T01:36:03.562Z,-2.37
2023-03-30T01:41:11.474Z,-2.38
2023-03-30T01:43:57.487Z,-2.42
2023-03-30T01:46:40.276Z,-2.43
2023-03-30T01:49:16.289Z,-2.44
2023-03-30T01:52:03.859Z,-2.45
2023-03-30T01:54:38.982Z,-2.45
2023-03-30T01:57:15.514Z,-2.46
2023-03-30T01:59:47.639Z,-2.47
2023-03-30T02:02:16.948Z,-2.48
2023-03-30T02:04:45.771Z,-2.50
2023-03-30T02:07:16.289Z,-2.51
2023-03-30T02:09:45.823Z,-2.53
2023-03-30T02:12:14.005Z,-2.54
2023-03-30T02:14:42.668Z,-2.56
2023-03-30T02:17:15.226Z,-2.56
2023-03-30T02:19:47.517Z,-2.58
2023-03-30T02:22:17.712Z,-2.60
2023-03-30T02:24:46.694Z,-2.61
2023-03-30T02:27:14.516Z,-2.62
2023-03-30T02:29:44.605Z,-2.62
2023-03-30T02:32:19.589Z,-2.65
2023-03-30T02:35:22.525Z,-2.67
2023-03-30T02:38:26.573Z,-2.68
2023-03-30T02:41:15.799Z,-2.70
2023-03-30T02:43:51.263Z,-2.71
2023-03-30T02:46:38.514Z,-2.73
2023-03-30T02:49:17.246Z,-2.75
2023-03-30T02:51:57.204Z,-2.76
2023-03-30T02:54:51.000Z,-2.77
2023-03-30T02:57:49.279Z,-2.78
2023-03-30T03:00:44.459Z,-2.80
2023-03-30T03:03:19.972Z,-2.83
2023-03-30T03:05:49.035Z,-2.85
2023-03-30T03:08:18.983Z,-2.87
2023-03-30T03:10:47.702Z,-2.89
2023-03-30T03:13:20.882Z,-2.92
2023-03-30T03:15:49.845Z,-2.95
2023-03-30T03:18:18.818Z,-2.96
2023-03-30T03:20:47.028Z,-2.97
2023-03-30T03:23:16.625Z,-2.98
2023-03-30T03:25:51.690Z,-3.00
2023-03-30T03:28:22.411Z,-3.03
2023-03-30T03:30:54.342Z,-3.05
2023-03-30T03:33:24.864Z,-3.07
2023-03-30T03:36:00.547Z,-3.08
2023-03-30T03:38:29.470Z,-3.10
2023-03-30T03:40:58.531Z,-3.10
2023-03-30T03:43:26.903Z,-3.11
2023-03-30T03:45:55.091Z,-3.13
2023-03-30T03:48:24.414Z,-3.14
2023-03-30T03:50:53.937Z,-3.15
2023-03-30T03:53:22.944Z,-3.15
2023-03-30T03:55:52.922Z,-3.15
2023-03-30T03:58:23.788Z,-3.11
2023-03-30T04:00:57.463Z,-3.09
2023-03-30T04:03:32.398Z,-3.09
2023-03-30T04:06:01.195Z,-3.10
2023-03-30T04:08:30.659Z,-3.03
2023-03-30T04:11:10.039Z,-2.67
2023-03-30T04:13:48.940Z,-2.22
2023-03-30T04:16:44.252Z,-1.97
2023-03-30T04:19:33.532Z,-1.80
2023-03-30T04:22:24.383Z,-1.54
2023-03-30T04:25:16.060Z,-1.30
2023-03-30T04:28:06.658Z,-1.16
2023-03-30T04:30:59.065Z,-1.00
2023-03-30T04:34:02.676Z,-0.76
2023-03-30T04:36:48.992Z,-0.30
2023-03-30T04:39:36.282Z,0.29
2023-03-30T04:42:34.481Z,0.80
2023-03-30T04:45:23.744Z,1.48
2023-03-30T04:48:16.534Z,2.21
2023-03-30T04:50:56.398Z,2.73
2023-03-30T04:53:43.057Z,3.11
2023-03-30T04:56:26.407Z,3.42
2023-03-30T04:59:13.314Z,3.72
2023-03-30T05:02:01.092Z,3.95
2023-03-30T05:04:42.294Z,4.17
2023-03-30T05:07:31.557Z,4.31
2023-03-30T05:10:22.966Z,4.34
2023-03-30T05:12:57.590Z,4.72
2023-03-30T05:15:39.908Z,5.20
2023-03-30T05:18:26.165Z,5.72
2023-03-30T05:21:09.165Z,6.22
2023-03-30T05:23:55.929Z,6.80
2023-03-30T05:27:02.955Z,7.45
2023-03-30T05:29:51.639Z,8.04
2023-03-30T05:32:47.384Z,8.82
2023-03-30T05:35:27.135Z,9.46
2023-03-30T05:38:19.073Z,10.16
2023-03-30T05:41:11.223Z,10.93
2023-03-30T05:43:59.505Z,11.55
2023-03-30T05:46:58.652Z,12.23
2023-03-30T05:49:41.401Z,12.83
2023-03-30T05:52:18.815Z,13.30
2023-03-30T05:55:02.872Z,13.82
2023-03-30T05:57:50.450Z,14.18
2023-03-30T06:00:42.545Z,14.58
2023-03-30T06:03:16.469Z,15.04
2023-03-30T06:05:46.702Z,15.32
2023-03-30T06:08:15.295Z,15.50
2023-03-30T06:10:52.198Z,15.68
2023-03-30T06:13:20.173Z,15.87
2023-03-30T06:15:52.172Z,16.06
2023-03-30T06:18:22.706Z,16.29
2023-03-30T06:20:57.506Z,16.53
2023-03-30T06:23:26.482Z,16.81
2023-03-30T06:25:56.210Z,16.96
2023-03-30T06:28:29.093Z,17.10
2023-03-30T06:30:56.999Z,17.28
2023-03-30T06:33:26.421Z,17.43
2023-03-30T06:35:58.685Z,17.44
2023-03-30T06:38:27.640Z,17.33
2023-03-30T06:40:57.097Z,17.38
2023-03-30T06:43:26.340Z,17.44
2023-03-30T06:46:16.038Z,17.51
2023-03-30T06:48:48.847Z,17.54
2023-03-30T06:51:37.241Z,17.55
2023-03-30T06:54:06.299Z,17.43
2023-03-30T06:56:34.498Z,17.37
2023-03-30T06:59:10.945Z,17.22
2023-03-30T07:02:00.037Z,16.86
2023-03-30T07:04:53.078Z,16.50
2023-03-30T07:07:26.568Z,16.07
2023-03-30T07:09:54.790Z,15.64
2023-03-30T07:12:25.093Z,15.21
2023-03-30T07:14:54.485Z,14.73
2023-03-30T07:17:26.400Z,14.35
2023-03-30T07:19:59.016Z,13.99
2023-03-30T07:22:27.898Z,13.71
2023-03-30T07:24:55.861Z,13.42
2023-03-30T07:27:27.287Z,13.10
2023-03-30T07:30:00.528Z,12.77
2023-03-30T07:32:34.815Z,12.43
2023-03-30T07:35:04.397Z,12.19
2023-03-30T07:37:32.660Z,11.91
2023-03-30T07:40:01.323Z,11.64
2023-03-30T07:42:31.591Z,11.37
2023-03-30T07:44:59.897Z,11.17
2023-03-30T07:47:29.008Z,10.97
2023-03-30T07:49:57.217Z,10.79
2023-03-30T07:52:26.405Z,10.59
2023-03-30T07:54:58.764Z,10.49
2023-03-30T07:57:34.312Z,10.45
2023-03-30T08:00:05.621Z,10.37
2023-03-30T08:03:05.335Z,10.32
2023-03-30T08:05:38.967Z,10.31
2023-03-30T08:08:15.981Z,10.29
2023-03-30T08:10:44.905Z,10.23
2023-03-30T08:13:15.539Z,10.19
2023-03-30T08:15:45.313Z,10.22
2023-03-30T08:18:14.249Z,10.28
2023-03-30T08:20:45.595Z,10.28
2023-03-30T08:23:14.176Z,10.25
2023-03-30T08:25:42.916Z,10.17
2023-03-30T08:28:11.777Z,10.04
2023-03-30T08:30:40.101Z,9.92
2023-03-30T08:33:09.298Z,9.81
2023-03-30T08:35:37.583Z,9.73
2023-03-30T08:38:05.433Z,9.69
2023-03-30T08:40:33.230Z,9.73
2023-03-30T08:43:09.823Z,9.74
2023-03-30T08:45:42.623Z,9.78
2023-03-30T08:48:22.134Z,9.74
2023-03-30T08:51:14.766Z,9.71
2023-03-30T08:53:42.867Z,9.72
2023-03-30T08:56:19.089Z,9.64
2023-03-30T08:58:56.490Z,9.61
2023-03-30T09:01:42.344Z,9.65
2023-03-30T09:04:27.428Z,9.67
2023-03-30T09:06:58.315Z,9.59
2023-03-30T09:09:28.875Z,9.55
2023-03-30T09:12:05.194Z,9.50
2023-03-30T09:14:36.674Z,9.53
2023-03-30T09:17:14.568Z,9.63
2023-03-30T09:19:49.355Z,9.69
2023-03-30T09:22:18.468Z,9.65
2023-03-30T09:24:46.775Z,9.57
2023-03-30T09:27:22.639Z,9.54
2023-03-30T09:29:51.604Z,9.56
2023-03-30T09:32:36.016Z,9.60
2023-03-30T09:35:14.933Z,9.63
2023-03-30T09:37:42.837Z,9.71
2023-03-30T09:40:23.376Z,9.78
2023-03-30T09:42:55.562Z,9.71
2023-03-30T09:45:31.995Z,9.64
2023-03-30T09:48:06.555Z,9.60
2023-03-30T09:50:44.152Z,9.55
2023-03-30T09:53:25.805Z,9.52
2023-03-30T09:56:11.270Z,9.47
2023-03-30T09:58:42.422Z,9.42
2023-03-30T10:01:12.814Z,9.38
2023-03-30T10:04:05.799Z,9.33
2023-03-30T10:06:39.541Z,9.12
2023-03-30T10:09:11.455Z,8.99
2023-03-30T10:11:44.918Z,8.93
2023-03-30T10:14:23.754Z,8.92
2023-03-30T10:16:56.742Z,8.96
2023-03-30T10:19:25.709Z,9.02
2023-03-30T10:21:58.909Z,9.10
2023-03-30T10:24:33.232Z,9.11
2023-03-30T10:27:09.735Z,9.13
2023-03-30T10:29:37.805Z,9.07
2023-03-30T10:32:19.688Z,9.05
2023-03-30T10:34:52.472Z,9.02
2023-03-30T10:37:34.563Z,9.01
2023-03-30T10:40:08.878Z,9.05
2023-03-30T10:42:37.103Z,9.05
2023-03-30T10:45:06.404Z,9.03
2023-03-30T10:48:03.117Z,8.92
2023-03-30T10:50:52.236Z,8.89
2023-03-30T10:53:30.954Z,8.82
2023-03-30T10:56:17.286Z,8.80
2023-03-30T10:59:16.338Z,8.79
2023-03-30T11:02:08.820Z,8.79
2023-03-30T11:04:36.747Z,8.80
2023-03-30T11:07:05.754Z,8.87
2023-03-30T11:09:36.770Z,8.93
2023-03-30T11:12:11.304Z,8.94
2023-03-30T11:14:47.758Z,8.96
2023-03-30T11:17:35.556Z,8.99
2023-03-30T11:20:17.955Z,9.03
2023-03-30T11:22:49.235Z,9.12
2023-03-30T11:25:39.507Z,9.15
2023-03-30T11:28:44.974Z,9.16
2023-03-30T11:31:40.340Z,9.23
2023-03-30T11:34:28.486Z,9.34
2023-03-30T11:37:13.580Z,9.42
2023-03-30T11:39:48.026Z,9.52
2023-03-30T11:42:23.236Z,9.54
2023-03-30T11:44:51.837Z,9.51
2023-03-30T11:47:37.044Z,9.52
2023-03-30T11:50:50.794Z,9.49
2023-03-30T11:53:28.609Z,9.47
2023-03-30T11:56:06.770Z,9.46
2023-03-30T11:58:38.229Z,9.48
2023-03-30T12:02:04.552Z,9.47
2023-03-30T12:04:40.294Z,9.43
2023-03-30T12:07:35.420Z,9.35
2023-03-30T12:10:08.297Z,9.26
2023-03-30T12:12:45.738Z,9.19
2023-03-30T12:15:26.493Z,9.20
2023-03-30T12:18:02.830Z,9.26
2023-03-30T12:20:43.183Z,9.31
2023-03-30T12:23:36.009Z,9.32
2023-03-30T12:26:25.913Z,9.31
2023-03-30T12:29:26.240Z,9.29
2023-03-30T12:31:56.040Z,9.30
2023-03-30T12:34:26.167Z,9.30
2023-03-30T12:37:10.127Z,9.31
2023-03-30T12:39:51.007Z,9.30
2023-03-30T12:42:35.278Z,9.29
2023-03-30T12:45:14.961Z,9.28
2023-03-30T12:47:52.589Z,9.28
2023-03-30T12:51:00.290Z,9.26
2023-03-30T12:53:47.274Z,9.24
2023-03-30T12:56:35.576Z,9.22
2023-03-30T12:59:26.376Z,9.23
2023-03-30T13:02:01.874Z,9.21
2023-03-30T13:04:34.468Z,9.19
2023-03-30T13:07:07.081Z,9.15
2023-03-30T13:10:01.863Z,9.05
2023-03-30T13:12:36.066Z,9.01
2023-03-30T13:15:31.634Z,9.03
2023-03-30T13:18:05.037Z,9.03
2023-03-30T13:20:47.117Z,9.04
2023-03-30T13:23:19.817Z,9.06
2023-03-30T13:26:07.869Z,9.08
2023-03-30T13:28:57.489Z,9.09
2023-03-30T13:31:44.179Z,9.11
2023-03-30T13:34:22.146Z,9.14
2023-03-30T13:37:14.554Z,9.16
2023-03-30T13:40:24.554Z,9.18
2023-03-30T13:43:10.157Z,9.20
2023-03-30T13:46:13.154Z,9.21
2023-03-30T13:48:49.983Z,9.20
2023-03-30T13:51:27.563Z,9.14
2023-03-30T13:54:01.697Z,9.12
2023-03-30T13:59:32.222Z,9.15
2023-03-30T14:02:01.074Z,9.15
2023-03-30T14:04:34.590Z,9.14
2023-03-30T14:07:14.235Z,9.11
2023-03-30T14:09:42.611Z,9.07
2023-03-30T14:12:18.515Z,9.06
2023-03-30T14:14:48.386Z,9.02
2023-03-30T14:17:21.852Z,8.97
2023-03-30T14:20:19.855Z,8.93
2023-03-30T14:22:47.888Z,8.89
2023-03-30T14:25:26.336Z,8.86
2023-03-30T14:28:02.947Z,8.84
2023-03-30T14:30:31.356Z,8.82
2023-03-30T14:33:11.507Z,8.78
2023-03-30T14:35:50.953Z,8.74
2023-03-30T14:38:24.090Z,8.68
2023-03-30T14:40:53.267Z,8.65
2023-03-30T14:43:24.628Z,8.64
2023-03-30T14:45:53.739Z,8.64
2023-03-30T14:48:31.737Z,8.65
2023-03-30T14:51:19.906Z,8.66
2023-03-30T14:53:49.993Z,8.66
2023-03-30T14:56:20.661Z,8.64
2023-03-30T14:58:49.413Z,8.60
2023-03-30T15:01:31.050Z,8.59
2023-03-30T15:04:07.618Z,8.55
2023-03-30T15:06:36.652Z,8.49
2023-03-30T15:09:15.094Z,8.43
2023-03-30T15:11:43.521Z,8.38
2023-03-30T15:14:15.218Z,8.34
2023-03-30T15:16:43.125Z,8.32
2023-03-30T15:19:28.081Z,8.28
2023-03-30T15:22:01.085Z,8.23
2023-03-30T15:24:33.098Z,8.18
2023-03-30T15:27:03.305Z,8.13
2023-03-30T15:29:31.614Z,8.09
2023-03-30T15:32:20.186Z,8.05
2023-03-30T15:35:13.701Z,7.98
2023-03-30T15:37:56.108Z,7.91
2023-03-30T15:40:40.936Z,7.84
2023-03-30T15:43:20.032Z,7.78
2023-03-30T15:46:08.871Z,7.71
2023-03-30T15:48:45.630Z,7.65
2023-03-30T15:51:24.705Z,7.56
2023-03-30T15:53:56.781Z,7.50
2023-03-30T15:57:04.059Z,7.45
2023-03-30T15:59:40.617Z,7.40
2023-03-30T16:02:22.766Z,7.35
2023-03-30T16:04:51.666Z,7.28
2023-03-30T16:07:21.195Z,7.22
2023-03-30T16:09:49.052Z,7.14
2023-03-30T16:12:20.648Z,7.05
2023-03-30T16:14:48.588Z,6.96
2023-03-30T16:17:16.752Z,6.86
2023-03-30T16:19:45.763Z,6.76
2023-03-30T16:22:14.331Z,6.64
2023-03-30T16:24:43.650Z,6.52
2023-03-30T16:27:12.184Z,6.40
2023-03-30T16:29:45.967Z,6.27
2023-03-30T16:32:13.877Z,6.13
2023-03-30T16:34:43.092Z,6.00
2023-03-30T16:37:13.717Z,5.86
2023-03-30T16:39:42.644Z,5.73
2023-03-30T16:42:11.138Z,5.58
2023-03-30T16:44:39.033Z,5.44
2023-03-30T16:47:07.399Z,5.32
2023-03-30T16:49:35.544Z,5.20
2023-03-30T16:52:03.549Z,5.07
2023-03-30T16:54:32.961Z,4.94
2023-03-30T16:57:02.548Z,4.82
2023-03-30T16:59:34.447Z,4.68
2023-03-30T17:02:03.520Z,4.55
2023-03-30T17:04:31.695Z,4.41
2023-03-30T17:07:01.868Z,4.30
2023-03-30T17:09:30.198Z,4.18
2023-03-30T17:11:58.181Z,4.04
2023-03-30T17:14:26.133Z,3.92
2023-03-30T17:16:55.188Z,3.80
2023-03-30T17:19:25.664Z,3.69
2023-03-30T17:21:53.550Z,3.58
2023-03-30T17:24:21.710Z,3.46
2023-03-30T17:26:49.667Z,3.35
2023-03-30T17:29:17.830Z,3.23
2023-03-30T17:31:52.221Z,3.14
2023-03-30T17:34:20.431Z,3.04
2023-03-30T17:36:48.392Z,2.95
2023-03-30T17:39:16.832Z,2.85
2023-03-30T17:41:44.867Z,2.75
2023-03-30T17:44:17.838Z,2.65
2023-03-30T17:46:46.295Z,2.55
2023-03-30T17:49:18.618Z,2.46
2023-03-30T17:51:47.165Z,2.37
2023-03-30T17:54:15.640Z,2.29
2023-03-30T17:56:43.672Z,2.22
2023-03-30T17:59:11.739Z,2.15
2023-03-30T18:01:40.191Z,2.09
2023-03-30T18:04:08.430Z,2.01
2023-03-30T18:06:36.474Z,1.92
2023-03-30T18:09:06.209Z,1.85
2023-03-30T18:11:35.165Z,1.76
2023-03-30T18:14:03.208Z,1.69
2023-03-30T18:16:31.265Z,1.62
2023-03-30T18:18:59.495Z,1.56
2023-03-30T18:21:27.732Z,1.50
2023-03-30T18:23:57.022Z,1.44
2023-03-30T18:26:24.862Z,1.38
2023-03-30T18:28:52.858Z,1.32
2023-03-30T18:31:22.360Z,1.26
2023-03-30T18:33:53.062Z,1.19
2023-03-30T18:36:21.615Z,1.13
2023-03-30T18:38:50.406Z,1.06
2023-03-30T18:41:18.264Z,1.00
2023-03-30T18:43:47.312Z,0.94
2023-03-30T18:46:15.213Z,0.91
2023-03-30T18:48:44.424Z,0.89
2023-03-30T18:51:12.719Z,0.87
2023-03-30T18:53:42.505Z,0.84
2023-03-30T18:56:11.630Z,0.83
2023-03-30T18:58:42.025Z,0.85
2023-03-30T19:01:16.125Z,0.89
2023-03-30T19:03:45.344Z,0.92
2023-03-30T19:06:16.572Z,0.96
2023-03-30T19:08:44.725Z,1.00
2023-03-30T19:11:14.994Z,1.06
2023-03-30T19:13:43.032Z,1.11
2023-03-30T19:16:12.502Z,1.17
2023-03-30T19:18:41.109Z,1.22
2023-03-30T19:21:13.484Z,1.28
2023-03-30T19:23:41.557Z,1.34
2023-03-30T19:26:09.628Z,1.39
2023-03-30T19:28:40.107Z,1.43
2023-03-30T19:31:12.174Z,1.47
2023-03-30T19:33:40.548Z,1.54
2023-03-30T19:36:11.060Z,1.58
2023-03-30T19:38:39.102Z,1.62
2023-03-30T19:41:10.238Z,1.67
2023-03-30T19:43:38.423Z,1.72
2023-03-30T19:46:08.991Z,1.76
2023-03-30T19:48:38.551Z,1.81
2023-03-30T19:51:06.976Z,1.86
2023-03-30T19:53:37.914Z,1.91
2023-03-30T19:56:10.436Z,1.94
2023-03-30T19:58:38.924Z,1.95
2023-03-30T20:01:08.291Z,1.98
2023-03-30T20:03:37.407Z,2.01
2023-03-30T20:06:11.805Z,2.04
2023-03-30T20:08:40.283Z,2.05
2023-03-30T20:11:08.878Z,2.07
2023-03-30T20:13:36.890Z,2.09
2023-03-30T20:16:06.063Z,2.08
2023-03-30T20:18:35.690Z,2.08
2023-03-30T20:21:04.638Z,2.10
2023-03-30T20:23:33.180Z,2.11
2023-03-30T20:26:04.252Z,2.14
2023-03-30T20:28:34.007Z,2.17
2023-03-30T20:31:02.066Z,2.20
2023-03-30T20:33:32.819Z,2.22
2023-03-30T20:36:01.310Z,2.21
2023-03-30T20:38:29.444Z,2.20
2023-03-30T20:40:58.564Z,2.20
2023-03-30T20:43:26.807Z,2.19
2023-03-30T20:46:05.762Z,2.17
2023-03-30T20:48:37.632Z,2.18
2023-03-30T20:51:10.974Z,2.20
2023-03-30T20:53:39.326Z,2.22
2023-03-30T20:56:10.336Z,2.23
2023-03-30T20:58:39.196Z,2.24
2023-03-30T21:01:18.855Z,2.21
2023-03-30T21:03:50.213Z,2.16
2023-03-30T21:06:19.816Z,2.14
2023-03-30T21:08:48.780Z,2.13
2023-03-30T21:11:17.120Z,2.14
2023-03-30T21:13:56.684Z,2.15
2023-03-30T21:16:24.779Z,2.16
2023-03-30T21:18:53.516Z,2.19
2023-03-30T21:21:22.970Z,2.23
2023-03-30T21:23:50.869Z,2.25
2023-03-30T21:26:19.252Z,2.27
2023-03-30T21:28:47.252Z,2.28
2023-03-30T21:31:17.322Z,2.28
2023-03-30T21:33:46.379Z,2.29
2023-03-30T21:36:14.407Z,2.31
2023-03-30T21:38:42.468Z,2.34
2023-03-30T21:41:14.039Z,2.38
2023-03-30T21:43:44.408Z,2.40
2023-03-30T21:46:20.628Z,2.42
2023-03-30T21:48:53.698Z,2.42
2023-03-30T21:51:27.399Z,2.41
2023-03-30T21:53:56.178Z,2.42
2023-03-30T21:56:26.020Z,2.43
2023-03-30T21:58:53.979Z,2.45
2023-03-30T22:01:25.085Z,2.46
2023-03-30T22:03:54.313Z,2.46
2023-03-30T22:06:22.561Z,2.47
2023-03-30T22:11:20.716Z,2.49
2023-03-30T22:13:49.101Z,2.51
2023-03-30T22:16:25.852Z,2.53
2023-03-30T22:18:56.957Z,2.55
2023-03-30T22:21:27.288Z,2.56
2023-03-30T22:23:55.120Z,2.56
2023-03-30T22:26:22.981Z,2.54
2023-03-30T22:28:51.384Z,2.55
2023-03-30T22:31:23.328Z,2.55
2023-03-30T22:33:52.972Z,2.56
2023-03-30T22:36:23.278Z,2.56
2023-03-30T22:38:51.985Z,2.56
2023-03-30T22:41:24.001Z,2.54
2023-03-30T22:43:53.196Z,2.53
2023-03-30T22:46:21.678Z,2.50
2023-03-30T22:48:51.753Z,2.46
2023-03-30T22:51:26.522Z,2.44
2023-03-30T22:53:58.021Z,2.44
2023-03-30T22:56:31.850Z,2.45
2023-03-30T22:59:01.385Z,2.46
2023-03-30T23:01:32.060Z,2.44
2023-03-30T23:04:01.876Z,2.43
2023-03-30T23:06:31.915Z,2.43
2023-03-30T23:09:04.308Z,2.44
2023-03-30T23:11:34.429Z,2.44
2023-03-30T23:14:05.454Z,2.45
2023-03-30T23:16:34.338Z,2.45
2023-03-30T23:19:03.318Z,2.46
2023-03-30T23:21:34.419Z,2.49
2023-03-30T23:24:07.668Z,2.52
2023-03-30T23:26:36.812Z,2.56
2023-03-30T23:29:04.975Z,2.56
2023-03-30T23:31:34.830Z,2.57
2023-03-30T23:34:02.864Z,2.56
2023-03-30T23:36:31.381Z,2.56
2023-03-30T23:38:59.247Z,2.57
2023-03-30T23:41:29.099Z,2.58
2023-03-30T23:43:58.288Z,2.60
2023-03-30T23:46:26.764Z,2.62
2023-03-30T23:48:55.014Z,2.61
2023-03-30T23:51:22.929Z,2.57
2023-03-30T23:53:54.570Z,2.56
2023-03-30T23:56:27.849Z,2.57
2023-03-30T23:58:56.896Z,2.59
